createdAt,value
2018-12-09T00:01:35.922Z,3.23
2018-12-09T00:04:04.739Z,7.00
2018-12-09T00:06:33.523Z,4.80
2018-12-09T00:09:02.297Z,7.03
2018-12-09T00:11:31.054Z,3.77
2018-12-09T00:13:59.870Z,6.23
2018-12-09T00:16:28.636Z,5.30
2018-12-09T00:18:57.347Z,3.37
2018-12-09T00:21:26.187Z,5.40
2018-12-09T00:23:55.213Z,7.30
2018-12-09T00:26:23.999Z,7.70
2018-12-09T00:28:52.778Z,2.53
2018-12-09T00:31:23.241Z,4.73
2018-12-09T00:33:52.187Z,4.80
2018-12-09T00:36:20.986Z,5.13
2018-12-09T00:38:49.653Z,6.03
2018-12-09T00:41:19.499Z,1.87
2018-12-09T00:43:48.255Z,5.23
2018-12-09T00:46:17.034Z,4.93
2018-12-09T00:48:45.825Z,5.10
2018-12-09T00:51:16.040Z,3.47
2018-12-09T00:53:44.880Z,4.53
2018-12-09T00:56:13.677Z,9.00
2018-12-09T00:58:42.451Z,3.67
2018-12-09T01:01:13.882Z,2.70
2018-12-09T01:03:43.029Z,4.13
2018-12-09T01:06:11.920Z,3.10
2018-12-09T01:08:40.693Z,3.70
2018-12-09T01:11:09.551Z,4.10
2018-12-09T01:13:38.338Z,5.37
2018-12-09T01:16:07.106Z,5.47
2018-12-09T01:18:36.084Z,1.57
2018-12-09T01:21:04.854Z,4.60
2018-12-09T01:23:33.624Z,4.30
2018-12-09T01:26:02.332Z,4.90
2018-12-09T01:28:31.170Z,2.67
2018-12-09T01:30:59.886Z,3.13
2018-12-09T01:33:28.624Z,2.60
2018-12-09T01:35:57.417Z,1.40
2018-12-09T01:38:26.140Z,3.47
2018-12-09T01:40:56.086Z,3.87
2018-12-09T01:43:24.811Z,1.43
2018-12-09T01:45:53.515Z,0.80
2018-12-09T01:48:22.410Z,1.13
2018-12-09T01:50:51.435Z,1.87
2018-12-09T01:53:34.453Z,0.80
2018-12-09T01:56:03.215Z,2.70
2018-12-09T01:58:31.990Z,2.00
2018-12-09T02:01:01.201Z,1.00
2018-12-09T02:03:29.831Z,1.47
2018-12-09T02:05:58.683Z,0.90
2018-12-09T02:08:27.733Z,1.67
2018-12-09T02:10:56.495Z,1.50
2018-12-09T02:13:25.199Z,0.60
2018-12-09T02:15:53.988Z,4.93
2018-12-09T02:18:22.853Z,1.00
2018-12-09T02:20:51.820Z,1.30
2018-12-09T02:23:20.587Z,1.77
2018-12-09T02:25:49.301Z,1.73
2018-12-09T02:28:18.024Z,0.80
2018-12-09T02:30:46.837Z,1.47
2018-12-09T02:33:15.854Z,1.27
2018-12-09T02:35:46.422Z,1.57
2018-12-09T02:38:15.238Z,2.27
2018-12-09T02:40:44.099Z,0.70
2018-12-09T02:43:12.817Z,1.17
2018-12-09T02:45:41.640Z,2.30
2018-12-09T02:48:10.557Z,0.83
2018-12-09T02:50:39.292Z,1.60
2018-12-09T02:53:08.245Z,0.80
2018-12-09T02:55:37.023Z,0.90
2018-12-09T02:58:05.789Z,2.00
2018-12-09T03:00:34.589Z,0.90
2018-12-09T03:03:03.489Z,1.10
2018-12-09T03:05:32.551Z,3.03
2018-12-09T03:08:01.278Z,2.37
2018-12-09T03:10:29.932Z,1.17
2018-12-09T03:12:58.588Z,2.00
2018-12-09T03:15:27.548Z,1.20
2018-12-09T03:17:56.270Z,1.43
2018-12-09T03:20:25.234Z,1.20
2018-12-09T03:22:53.949Z,2.33
2018-12-09T03:25:22.839Z,1.10
2018-12-09T03:27:52.395Z,1.53
2018-12-09T03:30:21.155Z,2.43
2018-12-09T03:32:50.073Z,1.77
2018-12-09T03:35:18.842Z,2.03
2018-12-09T03:37:47.618Z,1.13
2018-12-09T03:40:16.401Z,1.00
2018-12-09T03:42:45.129Z,0.70
2018-12-09T03:45:13.906Z,1.07
2018-12-09T03:47:42.625Z,0.70
2018-12-09T03:50:11.896Z,3.63
2018-12-09T03:52:40.617Z,1.40
2018-12-09T03:55:09.363Z,3.40
2018-12-09T03:57:38.085Z,1.37
2018-12-09T04:00:07.395Z,0.70
2018-12-09T04:02:36.148Z,0.97
2018-12-09T04:05:05.155Z,1.17
2018-12-09T04:07:33.931Z,1.23
2018-12-09T04:10:02.655Z,3.23
2018-12-09T04:12:31.357Z,0.80
2018-12-09T04:15:00.115Z,2.17
2018-12-09T04:17:28.792Z,1.30
2018-12-09T04:19:57.526Z,1.70
2018-12-09T04:22:26.369Z,1.37
2018-12-09T04:24:55.450Z,2.07
2018-12-09T04:27:24.262Z,3.10
2018-12-09T04:29:52.973Z,3.30
2018-12-09T04:32:21.754Z,1.90
2018-12-09T04:34:50.486Z,3.00
2018-12-09T04:37:19.346Z,2.20
2018-12-09T04:39:48.123Z,2.47
2018-12-09T04:42:16.878Z,2.63
2018-12-09T04:44:45.630Z,3.97
2018-12-09T04:47:14.692Z,4.17
2018-12-09T04:49:43.402Z,4.23
2018-12-09T04:52:12.170Z,3.07
2018-12-09T04:54:40.868Z,3.20
2018-12-09T04:57:09.677Z,6.83
2018-12-09T04:59:49.267Z,3.80
2018-12-09T05:02:18.145Z,5.67
2018-12-09T05:04:46.869Z,4.83
2018-12-09T05:07:15.732Z,5.30
2018-12-09T05:09:44.446Z,3.80
2018-12-09T05:12:13.318Z,2.73
2018-12-09T05:14:42.003Z,2.70
2018-12-09T05:17:10.805Z,2.80
2018-12-09T05:19:40.237Z,5.20
2018-12-09T05:22:09.015Z,4.90
2018-12-09T05:24:37.667Z,3.77
2018-12-09T05:27:06.451Z,6.50
2018-12-09T05:29:35.143Z,1.77
2018-12-09T05:32:03.875Z,3.30
2018-12-09T05:34:32.575Z,3.37
2018-12-09T05:37:01.239Z,5.93
2018-12-09T05:39:29.945Z,4.00
2018-12-09T05:41:58.683Z,3.47
2018-12-09T05:44:27.331Z,2.27
2018-12-09T05:46:55.979Z,5.67
2018-12-09T05:49:24.856Z,4.13
2018-12-09T05:51:53.651Z,4.30
2018-12-09T05:54:22.881Z,3.50
2018-12-09T05:56:51.547Z,3.33
2018-12-09T05:59:20.395Z,4.00
2018-12-09T06:01:49.116Z,1.90
2018-12-09T06:04:17.882Z,2.30
2018-12-09T06:06:46.960Z,7.87
2018-12-09T06:09:15.610Z,3.07
2018-12-09T06:11:44.390Z,3.37
2018-12-09T06:14:13.126Z,2.33
2018-12-09T06:16:41.991Z,5.33
2018-12-09T06:19:10.644Z,3.40
2018-12-09T06:21:39.410Z,1.90
2018-12-09T06:24:08.191Z,5.17
2018-12-09T06:26:36.970Z,5.50
2018-12-09T06:29:05.750Z,2.47
2018-12-09T06:31:34.524Z,2.77
2018-12-09T06:34:03.318Z,6.17
2018-12-09T06:36:31.948Z,2.47
2018-12-09T06:39:00.698Z,4.20
2018-12-09T06:41:29.816Z,2.77
2018-12-09T06:43:58.530Z,5.30
2018-12-09T06:46:27.254Z,4.77
2018-12-09T06:48:56.029Z,5.20
2018-12-09T06:51:25.010Z,3.73
2018-12-09T06:53:53.792Z,4.57
2018-12-09T06:56:22.557Z,3.47
2018-12-09T06:58:51.326Z,6.17
2018-12-09T07:01:20.131Z,5.33
2018-12-09T07:03:48.848Z,7.42
2018-12-09T07:06:17.481Z,6.30
2018-12-09T07:08:46.215Z,7.80
2018-12-09T07:11:14.888Z,8.43
2018-12-09T07:13:43.721Z,4.60
2018-12-09T07:16:12.461Z,2.63
2018-12-09T07:18:41.236Z,8.63
2018-12-09T07:21:09.883Z,5.93
2018-12-09T07:23:39.120Z,8.37
2018-12-09T07:26:07.927Z,7.17
2018-12-09T07:28:36.665Z,7.23
2018-12-09T07:31:05.394Z,5.27
2018-12-09T07:33:34.044Z,5.50
2018-12-09T07:36:02.998Z,8.60
2018-12-09T07:38:31.682Z,5.37
2018-12-09T07:41:00.525Z,5.87
2018-12-09T07:43:29.183Z,5.73
2018-12-09T07:45:58.032Z,5.93
2018-12-09T07:48:26.758Z,3.23
2018-12-09T07:50:55.490Z,4.77
2018-12-09T07:53:24.966Z,6.50
2018-12-09T07:55:53.703Z,4.67
2018-12-09T07:58:22.484Z,5.63
2018-12-09T08:00:51.265Z,5.37
2018-12-09T08:03:20.069Z,4.47
2018-12-09T08:05:48.810Z,6.43
2018-12-09T08:08:17.692Z,5.30
2018-12-09T08:10:46.519Z,7.83
2018-12-09T08:13:15.280Z,2.40
2018-12-09T08:15:44.163Z,3.97
2018-12-09T08:18:12.878Z,8.83
2018-12-09T08:20:41.694Z,7.03
2018-12-09T08:23:10.479Z,6.13
2018-12-09T08:25:39.306Z,5.27
2018-12-09T08:28:08.081Z,6.47
2018-12-09T08:30:36.875Z,7.87
2018-12-09T08:33:05.742Z,5.43
2018-12-09T08:35:34.428Z,9.57
2018-12-09T08:38:03.149Z,7.13
2018-12-09T08:40:31.931Z,8.47
2018-12-09T08:43:00.752Z,7.30
2018-12-09T08:45:29.478Z,7.03
2018-12-09T08:47:58.265Z,4.67
2018-12-09T08:50:27.024Z,4.43
2018-12-09T08:52:55.698Z,4.30
2018-12-09T08:55:24.623Z,8.43
2018-12-09T08:57:53.347Z,6.80
2018-12-09T09:00:22.147Z,6.30
2018-12-09T09:02:50.931Z,2.93
2018-12-09T09:05:19.739Z,3.00
2018-12-09T09:07:48.459Z,2.50
2018-12-09T09:10:17.226Z,3.23
2018-12-09T09:12:45.895Z,2.40
2018-12-09T09:15:14.703Z,2.53
2018-12-09T09:17:43.441Z,4.83
2018-12-09T09:20:12.266Z,4.90
2018-12-09T09:22:40.988Z,2.57
2018-12-09T09:25:09.765Z,3.20
2018-12-09T09:27:38.583Z,5.20
2018-12-09T09:30:08.098Z,2.03
2018-12-09T09:32:38.380Z,4.90
2018-12-09T09:35:07.179Z,1.93
2018-12-09T09:37:35.913Z,3.17
2018-12-09T09:40:06.800Z,3.20
2018-12-09T09:42:35.533Z,2.73
2018-12-09T09:45:04.902Z,1.73
2018-12-09T09:47:33.671Z,2.90
2018-12-09T09:50:02.386Z,2.63
2018-12-09T09:52:31.183Z,2.00
2018-12-09T09:55:00.530Z,1.47
2018-12-09T09:57:29.210Z,3.70
2018-12-09T09:59:58.001Z,1.63
2018-12-09T10:02:26.833Z,2.03
2018-12-09T10:04:55.585Z,2.83
2018-12-09T10:07:24.411Z,0.67
2018-12-09T10:09:53.530Z,2.70
2018-12-09T10:12:22.204Z,1.80
2018-12-09T10:14:50.951Z,1.63
2018-12-09T10:17:19.692Z,2.20
2018-12-09T10:19:48.508Z,1.17
2018-12-09T10:22:17.212Z,2.10
2018-12-09T10:24:45.979Z,2.83
2018-12-09T10:27:14.813Z,4.47
2018-12-09T10:29:43.591Z,2.33
2018-12-09T10:32:12.398Z,1.63
2018-12-09T10:34:41.052Z,1.67
2018-12-09T10:37:09.774Z,1.20
2018-12-09T10:39:38.554Z,1.50
2018-12-09T10:42:07.323Z,1.87
2018-12-09T10:44:36.085Z,2.13
2018-12-09T10:47:04.838Z,2.43
2018-12-09T10:49:33.584Z,3.63
2018-12-09T10:52:02.315Z,1.40
2018-12-09T10:54:31.060Z,2.20
2018-12-09T10:56:59.851Z,2.33
2018-12-09T10:59:29.060Z,2.30
2018-12-09T11:02:02.009Z,1.70
2018-12-09T11:04:30.775Z,1.50
2018-12-09T11:06:59.519Z,1.83
2018-12-09T11:09:28.359Z,2.10
2018-12-09T11:11:57.212Z,3.53
2018-12-09T11:14:25.880Z,1.93
2018-12-09T11:16:54.677Z,3.70
2018-12-09T11:19:23.493Z,3.33
2018-12-09T11:21:52.207Z,1.20
2018-12-09T11:24:20.966Z,1.30
2018-12-09T11:26:49.783Z,1.53
2018-12-09T11:29:18.534Z,5.67
2018-12-09T11:31:47.261Z,1.10
2018-12-09T11:34:16.008Z,4.50
2018-12-09T11:36:44.800Z,1.33
2018-12-09T11:39:13.781Z,2.37
2018-12-09T11:41:42.648Z,1.73
2018-12-09T11:44:11.871Z,2.13
2018-12-09T11:46:40.586Z,1.93
2018-12-09T11:49:09.455Z,1.10
2018-12-09T11:51:39.049Z,2.43
2018-12-09T11:54:07.825Z,2.30
2018-12-09T11:56:36.643Z,3.00
2018-12-09T11:59:05.435Z,1.77
2018-12-09T12:01:34.401Z,2.70
2018-12-09T12:04:03.124Z,4.90
2018-12-09T12:06:31.885Z,2.90
2018-12-09T12:09:00.707Z,2.13
2018-12-09T12:11:29.593Z,1.10
2018-12-09T12:13:58.495Z,1.37
2018-12-09T12:16:27.273Z,2.37
2018-12-09T12:18:56.373Z,1.77
2018-12-09T12:21:25.263Z,4.67
2018-12-09T12:23:53.959Z,2.00
2018-12-09T12:26:22.878Z,3.00
2018-12-09T12:28:51.732Z,1.57
2018-12-09T12:31:20.577Z,5.23
2018-12-09T12:33:49.868Z,3.37
2018-12-09T12:36:18.591Z,3.70
2018-12-09T12:38:47.356Z,4.47
2018-12-09T12:41:16.123Z,2.20
2018-12-09T12:43:44.890Z,4.67
2018-12-09T12:46:13.774Z,1.83
2018-12-09T12:48:42.600Z,3.00
2018-12-09T12:51:11.360Z,4.07
2018-12-09T12:53:40.207Z,2.03
2018-12-09T12:56:08.972Z,5.03
2018-12-09T12:58:37.765Z,5.53
2018-12-09T13:01:06.489Z,2.27
2018-12-09T13:03:35.130Z,1.97
2018-12-09T13:06:03.950Z,2.70
2018-12-09T13:08:33.032Z,3.20
2018-12-09T13:11:01.809Z,9.37
2018-12-09T13:13:30.579Z,6.33
2018-12-09T13:15:59.503Z,5.67
2018-12-09T13:18:29.109Z,2.37
2018-12-09T13:20:57.917Z,2.53
2018-12-09T13:23:26.642Z,1.83
2018-12-09T13:25:55.523Z,3.10
2018-12-09T13:28:24.259Z,2.00
2018-12-09T13:30:53.134Z,3.00
2018-12-09T13:33:21.895Z,3.83
2018-12-09T13:35:50.733Z,2.27
2018-12-09T13:38:19.499Z,1.10
2018-12-09T13:40:48.358Z,3.37
2018-12-09T13:43:17.235Z,1.60
2018-12-09T13:45:45.974Z,2.77
2018-12-09T13:48:15.007Z,3.40
2018-12-09T13:50:44.061Z,2.43
2018-12-09T13:53:12.790Z,2.47
2018-12-09T13:55:41.597Z,2.50
2018-12-09T13:58:10.391Z,2.67
2018-12-09T14:00:39.194Z,2.23
2018-12-09T14:03:07.989Z,2.83
2018-12-09T14:05:36.756Z,3.53
2018-12-09T14:08:05.552Z,6.40
2018-12-09T14:10:34.425Z,1.80
2018-12-09T14:13:03.180Z,2.13
2018-12-09T14:15:32.118Z,1.43
2018-12-09T14:18:00.893Z,2.27
2018-12-09T14:20:29.704Z,4.00
2018-12-09T14:22:58.562Z,2.00
2018-12-09T14:25:27.322Z,2.33
2018-12-09T14:27:56.059Z,5.80
2018-12-09T14:30:24.806Z,1.30
2018-12-09T14:32:53.484Z,3.90
2018-12-09T14:35:22.210Z,7.13
2018-12-09T14:37:51.005Z,2.07
2018-12-09T14:40:19.859Z,4.33
2018-12-09T14:42:48.568Z,2.83
2018-12-09T14:45:17.380Z,4.50
2018-12-09T14:47:46.199Z,1.27
2018-12-09T14:50:14.974Z,2.13
2018-12-09T14:52:43.810Z,3.47
2018-12-09T14:55:12.533Z,2.87
2018-12-09T14:57:41.172Z,3.10
2018-12-09T15:00:10.581Z,4.57
2018-12-09T15:02:39.279Z,7.70
2018-12-09T15:05:08.101Z,4.63
2018-12-09T15:07:36.823Z,3.27
2018-12-09T15:10:08.991Z,1.37
2018-12-09T15:12:36.976Z,4.30
2018-12-09T15:15:06.309Z,2.23
2018-12-09T15:17:35.070Z,4.20
2018-12-09T15:20:04.011Z,2.83
2018-12-09T15:22:32.685Z,2.70
2018-12-09T15:25:01.437Z,6.70
2018-12-09T15:27:30.156Z,5.30
2018-12-09T15:29:58.883Z,2.87
2018-12-09T15:32:27.528Z,3.90
2018-12-09T15:34:56.505Z,3.53
2018-12-09T15:37:25.309Z,5.33
2018-12-09T15:39:54.118Z,2.70
2018-12-09T15:42:22.931Z,4.00
2018-12-09T15:44:51.736Z,4.50
2018-12-09T15:47:20.579Z,7.43
2018-12-09T15:49:49.459Z,3.00
2018-12-09T15:52:18.396Z,7.77
2018-12-09T15:54:47.220Z,5.13
2018-12-09T15:57:15.935Z,6.53
2018-12-09T15:59:44.668Z,2.03
2018-12-09T16:02:13.389Z,6.13
2018-12-09T16:04:42.141Z,6.47
2018-12-09T16:07:10.842Z,3.50
2018-12-09T16:09:39.562Z,2.90
2018-12-09T16:12:08.492Z,4.67
2018-12-09T16:14:37.348Z,7.53
2018-12-09T16:17:06.230Z,6.67
2018-12-09T16:19:35.098Z,4.23
2018-12-09T16:22:03.912Z,2.47
2018-12-09T16:24:32.701Z,4.97
2018-12-09T16:27:01.426Z,6.03
2018-12-09T16:29:30.162Z,4.37
2018-12-09T16:31:58.888Z,4.90
2018-12-09T16:34:27.714Z,2.90
2018-12-09T16:36:56.498Z,2.00
2018-12-09T16:39:25.270Z,2.13
2018-12-09T16:41:53.956Z,3.90
2018-12-09T16:44:22.691Z,4.03
2018-12-09T16:46:51.412Z,5.50
2018-12-09T16:49:20.074Z,2.07
2018-12-09T16:51:48.900Z,4.67
2018-12-09T16:54:17.554Z,2.80
2018-12-09T16:56:46.228Z,3.97
2018-12-09T16:59:15.018Z,2.03
2018-12-09T17:01:43.866Z,3.50
2018-12-09T17:04:12.663Z,7.03
2018-12-09T17:06:41.391Z,5.53
2018-12-09T17:09:11.044Z,4.17
2018-12-09T17:11:39.952Z,5.73
2018-12-09T17:14:08.719Z,3.70
2018-12-09T17:16:37.519Z,6.80
2018-12-09T17:19:06.233Z,6.33
2018-12-09T17:21:35.100Z,2.77
2018-12-09T17:24:04.488Z,4.53
2018-12-09T17:26:33.284Z,3.13
2018-12-09T17:29:05.569Z,1.60
2018-12-09T17:31:33.123Z,4.97
2018-12-09T17:34:01.887Z,6.33
2018-12-09T17:36:30.664Z,3.47
2018-12-09T17:38:59.664Z,5.33
2018-12-09T17:41:28.558Z,4.17
2018-12-09T17:43:57.353Z,3.43
2018-12-09T17:46:26.092Z,6.23
2018-12-09T17:48:54.782Z,4.23
2018-12-09T17:51:23.498Z,2.93
2018-12-09T17:53:52.283Z,4.53
2018-12-09T17:56:21.142Z,1.77
2018-12-09T17:58:49.914Z,5.83
2018-12-09T18:01:18.960Z,4.63
2018-12-09T18:03:47.732Z,2.57
2018-12-09T18:06:16.480Z,4.77
2018-12-09T18:08:45.240Z,7.47
2018-12-09T18:11:13.924Z,4.97
2018-12-09T18:13:42.656Z,2.73
2018-12-09T18:16:11.566Z,6.23
2018-12-09T18:18:40.302Z,4.73
2018-12-09T18:21:09.093Z,6.00
2018-12-09T18:23:37.902Z,3.50
2018-12-09T18:26:06.666Z,4.53
2018-12-09T18:28:35.450Z,5.17
2018-12-09T18:31:04.666Z,5.67
2018-12-09T18:33:33.474Z,4.73
2018-12-09T18:36:02.243Z,5.53
2018-12-09T18:38:31.317Z,2.10
2018-12-09T18:41:00.055Z,3.90
2018-12-09T18:43:28.782Z,3.37
2018-12-09T18:45:57.499Z,5.30
2018-12-09T18:48:26.470Z,4.23
2018-12-09T18:50:55.207Z,2.73
2018-12-09T18:53:24.024Z,3.10
2018-12-09T18:55:52.763Z,5.23
2018-12-09T18:58:21.503Z,4.67
2018-12-09T19:00:50.227Z,5.63
2018-12-09T19:03:19.055Z,5.53
2018-12-09T19:05:48.153Z,3.77
2018-12-09T19:08:16.935Z,3.67
2018-12-09T19:10:45.659Z,8.13
2018-12-09T19:13:14.443Z,5.67
2018-12-09T19:15:43.179Z,5.70
2018-12-09T19:18:11.995Z,3.33
2018-12-09T19:20:40.670Z,6.23
2018-12-09T19:23:09.445Z,5.73
2018-12-09T19:25:38.256Z,2.47
2018-12-09T19:28:06.996Z,7.30
2018-12-09T19:30:35.736Z,8.87
2018-12-09T19:33:04.542Z,4.47
2018-12-09T19:35:33.342Z,11.60
2018-12-09T19:38:02.102Z,4.70
2018-12-09T19:40:30.996Z,10.00
2018-12-09T19:42:59.877Z,7.10
2018-12-09T19:45:28.674Z,8.17
2018-12-09T19:47:57.359Z,7.70
2018-12-09T19:50:26.330Z,7.83
2018-12-09T19:52:55.038Z,5.10
2018-12-09T19:55:23.907Z,7.30
2018-12-09T19:57:52.571Z,9.77
2018-12-09T20:00:21.352Z,8.60
2018-12-09T20:02:50.072Z,12.00
2018-12-09T20:05:18.987Z,5.47
2018-12-09T20:07:47.729Z,8.73
2018-12-09T20:10:16.440Z,9.20
2018-12-09T20:12:45.154Z,7.90
2018-12-09T20:15:13.955Z,7.20
2018-12-09T20:17:42.781Z,11.83
2018-12-09T20:20:11.488Z,7.33
2018-12-09T20:22:40.217Z,6.33
2018-12-09T20:25:09.140Z,8.03
2018-12-09T20:27:37.861Z,10.20
2018-12-09T20:30:08.227Z,6.30
2018-12-09T20:32:36.971Z,9.10
2018-12-09T20:35:05.899Z,10.77
2018-12-09T20:37:34.815Z,9.57
2018-12-09T20:40:03.654Z,6.73
2018-12-09T20:42:32.355Z,11.63
2018-12-09T20:45:01.207Z,8.67
2018-12-09T20:47:29.965Z,8.63
2018-12-09T20:49:58.602Z,11.30
2018-12-09T20:52:27.329Z,7.77
2018-12-09T20:54:56.031Z,8.03
2018-12-09T20:57:24.773Z,5.17
2018-12-09T20:59:53.503Z,9.33
2018-12-09T21:02:22.242Z,14.47
2018-12-09T21:04:50.959Z,11.37
2018-12-09T21:07:19.771Z,8.37
2018-12-09T21:09:48.499Z,12.73
2018-12-09T21:12:17.378Z,9.63
2018-12-09T21:14:46.223Z,5.27
2018-12-09T21:17:16.567Z,12.90
2018-12-09T21:19:46.250Z,6.27
2018-12-09T21:22:14.995Z,16.43
2018-12-09T21:24:43.743Z,10.00
2018-12-09T21:27:12.973Z,7.93
2018-12-09T21:29:41.772Z,6.43
2018-12-09T21:32:10.544Z,5.77
2018-12-09T21:34:39.316Z,9.20
2018-12-09T21:37:08.008Z,16.63
2018-12-09T21:39:36.678Z,8.93
2018-12-09T21:42:05.454Z,9.73
2018-12-09T21:44:34.238Z,12.50
2018-12-09T21:47:03.174Z,9.53
2018-12-09T21:49:31.976Z,6.67
2018-12-09T21:52:00.694Z,9.87
2018-12-09T21:54:29.450Z,11.73
2018-12-09T21:56:58.172Z,11.67
2018-12-09T21:59:26.923Z,9.23
2018-12-09T22:01:55.755Z,11.53
2018-12-09T22:04:24.489Z,7.83
2018-12-09T22:06:53.290Z,6.63
2018-12-09T22:09:22.144Z,10.57
2018-12-09T22:11:50.876Z,11.73
2018-12-09T22:14:19.622Z,8.93
2018-12-09T22:16:48.410Z,9.77
2018-12-09T22:19:17.223Z,6.63
2018-12-09T22:21:45.958Z,8.40
2018-12-09T22:24:14.705Z,12.87
2018-12-09T22:26:43.441Z,8.70
2018-12-09T22:29:12.220Z,10.33
2018-12-09T22:31:40.983Z,7.37
2018-12-09T22:34:09.788Z,14.67
2018-12-09T22:36:38.581Z,16.13
2018-12-09T22:39:07.874Z,13.47
2018-12-09T22:41:36.560Z,10.17
2018-12-09T22:44:05.341Z,10.83
2018-12-09T22:46:34.051Z,9.87
2018-12-09T22:49:02.758Z,11.80
2018-12-09T22:51:31.491Z,11.83
2018-12-09T22:54:00.231Z,8.07
2018-12-09T22:56:29.052Z,11.23
2018-12-09T22:58:58.302Z,10.77
2018-12-09T23:01:27.150Z,12.47
2018-12-09T23:03:55.871Z,15.73
2018-12-09T23:06:24.705Z,5.77
2018-12-09T23:08:53.477Z,11.00
2018-12-09T23:11:22.212Z,10.20
2018-12-09T23:13:50.991Z,14.30
2018-12-09T23:16:20.262Z,14.47
2018-12-09T23:18:49.019Z,13.50
2018-12-09T23:21:17.775Z,7.90
2018-12-09T23:23:46.492Z,9.80
2018-12-09T23:26:15.375Z,12.97
2018-12-09T23:28:44.242Z,10.77
2018-12-09T23:31:12.941Z,10.93
2018-12-09T23:33:41.718Z,9.87
2018-12-09T23:36:10.445Z,13.13
2018-12-09T23:38:39.185Z,13.90
2018-12-09T23:41:07.971Z,12.83
2018-12-09T23:43:36.650Z,13.40
2018-12-09T23:46:05.420Z,10.53
2018-12-09T23:48:34.156Z,9.30
2018-12-09T23:51:02.858Z,17.30
2018-12-09T23:53:31.603Z,9.97
2018-12-09T23:56:00.475Z,15.20
2018-12-09T23:58:29.178Z,7.50
